sensor_id;sensor_type;location;lat;lon;timestamp;P1;durP1;ratioP1;P2;durP2;ratioP2
70052;SDS011;57398;52.032;4.376;2022-11-12T00:01:01;41.40;;;16.60;;
70052;SDS011;57398;52.032;4.376;2022-11-12T00:03:28;42.05;;;15.77;;
70052;SDS011;57398;52.032;4.376;2022-11-12T00:05:57;43.55;;;15.50;;
70052;SDS011;57398;52.032;4.376;2022-11-12T00:08:25;42.10;;;16.27;;
70052;SDS011;57398;52.032;4.376;2022-11-12T00:10:53;46.70;;;17.23;;
70052;SDS011;57398;52.032;4.376;2022-11-12T00:13:21;41.88;;;16.60;;
70052;SDS011;57398;52.032;4.376;2022-11-12T00:15:48;45.63;;;16.92;;
70052;SDS011;57398;52.032;4.376;2022-11-12T00:18:16;42.72;;;17.23;;
70052;SDS011;57398;52.032;4.376;2022-11-12T00:20:44;46.42;;;16.90;;
70052;SDS011;57398;52.032;4.376;2022-11-12T00:23:13;48.20;;;18.57;;
70052;SDS011;57398;52.032;4.376;2022-11-12T00:25:41;43.13;;;18.40;;
70052;SDS011;57398;52.032;4.376;2022-11-12T00:28:09;46.85;;;17.08;;
70052;SDS011;57398;52.032;4.376;2022-11-12T00:30:37;48.45;;;17.52;;
70052;SDS011;57398;52.032;4.376;2022-11-12T00:33:06;42.50;;;16.58;;
70052;SDS011;57398;52.032;4.376;2022-11-12T00:35:34;46.43;;;18.87;;
70052;SDS011;57398;52.032;4.376;2022-11-12T00:38:02;45.03;;;17.52;;
70052;SDS011;57398;52.032;4.376;2022-11-12T00:40:31;41.15;;;17.50;;
70052;SDS011;57398;52.032;4.376;2022-11-12T00:42:59;44.03;;;17.33;;
70052;SDS011;57398;52.032;4.376;2022-11-12T00:45:26;43.72;;;17.23;;
70052;SDS011;57398;52.032;4.376;2022-11-12T00:47:54;46.90;;;17.87;;
70052;SDS011;57398;52.032;4.376;2022-11-12T00:50:22;43.25;;;17.08;;
70052;SDS011;57398;52.032;4.376;2022-11-12T00:52:50;45.55;;;18.67;;
70052;SDS011;57398;52.032;4.376;2022-11-12T00:55:18;48.13;;;17.63;;
70052;SDS011;57398;52.032;4.376;2022-11-12T00:57:47;46.90;;;17.98;;
70052;SDS011;57398;52.032;4.376;2022-11-12T01:00:16;47.87;;;18.17;;
70052;SDS011;57398;52.032;4.376;2022-11-12T01:02:44;44.78;;;18.30;;
70052;SDS011;57398;52.032;4.376;2022-11-12T01:05:16;43.75;;;19.00;;
70052;SDS011;57398;52.032;4.376;2022-11-12T01:07:45;44.90;;;17.92;;
70052;SDS011;57398;52.032;4.376;2022-11-12T01:10:16;46.22;;;18.38;;
70052;SDS011;57398;52.032;4.376;2022-11-12T01:12:44;43.77;;;17.90;;
70052;SDS011;57398;52.032;4.376;2022-11-12T01:15:13;43.67;;;17.38;;
70052;SDS011;57398;52.032;4.376;2022-11-12T01:17:41;44.20;;;18.02;;
70052;SDS011;57398;52.032;4.376;2022-11-12T01:20:09;46.08;;;18.48;;
70052;SDS011;57398;52.032;4.376;2022-11-12T01:22:37;43.85;;;17.83;;
70052;SDS011;57398;52.032;4.376;2022-11-12T01:25:05;43.63;;;18.57;;
70052;SDS011;57398;52.032;4.376;2022-11-12T01:27:33;45.10;;;17.60;;
70052;SDS011;57398;52.032;4.376;2022-11-12T01:30:01;45.70;;;19.02;;
70052;SDS011;57398;52.032;4.376;2022-11-12T01:32:32;45.00;;;17.70;;
70052;SDS011;57398;52.032;4.376;2022-11-12T01:35:00;42.65;;;17.38;;
70052;SDS011;57398;52.032;4.376;2022-11-12T01:37:28;44.33;;;17.10;;
70052;SDS011;57398;52.032;4.376;2022-11-12T01:39:56;37.97;;;15.93;;
70052;SDS011;57398;52.032;4.376;2022-11-12T01:42:24;39.53;;;16.13;;
70052;SDS011;57398;52.032;4.376;2022-11-12T01:44:54;43.03;;;16.98;;
70052;SDS011;57398;52.032;4.376;2022-11-12T01:47:23;40.95;;;16.40;;
70052;SDS011;57398;52.032;4.376;2022-11-12T01:49:55;39.23;;;16.27;;
70052;SDS011;57398;52.032;4.376;2022-11-12T01:52:27;40.53;;;16.08;;
70052;SDS011;57398;52.032;4.376;2022-11-12T01:54:59;38.45;;;16.08;;
70052;SDS011;57398;52.032;4.376;2022-11-12T01:57:30;36.30;;;15.05;;
70052;SDS011;57398;52.032;4.376;2022-11-12T02:00:03;39.17;;;15.32;;
70052;SDS011;57398;52.032;4.376;2022-11-12T02:02:34;37.10;;;14.50;;
70052;SDS011;57398;52.032;4.376;2022-11-12T02:05:05;38.63;;;14.55;;
70052;SDS011;57398;52.032;4.376;2022-11-12T02:07:35;37.03;;;15.75;;
70052;SDS011;57398;52.032;4.376;2022-11-12T02:10:06;37.38;;;14.63;;
70052;SDS011;57398;52.032;4.376;2022-11-12T02:12:35;35.80;;;15.02;;
70052;SDS011;57398;52.032;4.376;2022-11-12T02:15:21;36.33;;;14.27;;
70052;SDS011;57398;52.032;4.376;2022-11-12T02:17:48;38.40;;;14.88;;
70052;SDS011;57398;52.032;4.376;2022-11-12T02:20:17;42.05;;;15.45;;
70052;SDS011;57398;52.032;4.376;2022-11-12T02:22:47;39.90;;;15.77;;
70052;SDS011;57398;52.032;4.376;2022-11-12T02:25:15;40.50;;;16.08;;
70052;SDS011;57398;52.032;4.376;2022-11-12T02:27:46;40.30;;;15.73;;
70052;SDS011;57398;52.032;4.376;2022-11-12T02:30:17;42.63;;;16.38;;
70052;SDS011;57398;52.032;4.376;2022-11-12T02:32:45;40.35;;;15.50;;
70052;SDS011;57398;52.032;4.376;2022-11-12T02:35:13;43.67;;;16.45;;
70052;SDS011;57398;52.032;4.376;2022-11-12T02:37:40;40.67;;;15.98;;
70052;SDS011;57398;52.032;4.376;2022-11-12T02:40:09;44.17;;;16.57;;
70052;SDS011;57398;52.032;4.376;2022-11-12T02:42:37;41.25;;;14.95;;
70052;SDS011;57398;52.032;4.376;2022-11-12T02:45:06;46.28;;;16.25;;
70052;SDS011;57398;52.032;4.376;2022-11-12T02:47:34;43.72;;;17.17;;
70052;SDS011;57398;52.032;4.376;2022-11-12T02:50:03;43.70;;;17.20;;
70052;SDS011;57398;52.032;4.376;2022-11-12T02:52:31;44.47;;;17.43;;
70052;SDS011;57398;52.032;4.376;2022-11-12T02:55:00;42.05;;;16.27;;
70052;SDS011;57398;52.032;4.376;2022-11-12T02:57:29;46.13;;;17.67;;
70052;SDS011;57398;52.032;4.376;2022-11-12T02:59:57;46.05;;;17.52;;
70052;SDS011;57398;52.032;4.376;2022-11-12T03:02:24;44.67;;;17.73;;
70052;SDS011;57398;52.032;4.376;2022-11-12T03:04:52;47.60;;;17.87;;
70052;SDS011;57398;52.032;4.376;2022-11-12T03:07:20;46.83;;;17.25;;
70052;SDS011;57398;52.032;4.376;2022-11-12T03:09:47;49.88;;;17.73;;
70052;SDS011;57398;52.032;4.376;2022-11-12T03:12:15;46.00;;;18.17;;
70052;SDS011;57398;52.032;4.376;2022-11-12T03:14:44;46.03;;;17.75;;
70052;SDS011;57398;52.032;4.376;2022-11-12T03:17:12;46.10;;;17.80;;
70052;SDS011;57398;52.032;4.376;2022-11-12T03:19:39;46.40;;;17.08;;
70052;SDS011;57398;52.032;4.376;2022-11-12T03:22:07;42.15;;;17.00;;
70052;SDS011;57398;52.032;4.376;2022-11-12T03:24:35;46.83;;;17.30;;
70052;SDS011;57398;52.032;4.376;2022-11-12T03:27:02;47.65;;;17.05;;
70052;SDS011;57398;52.032;4.376;2022-11-12T03:29:30;47.13;;;17.77;;
70052;SDS011;57398;52.032;4.376;2022-11-12T03:31:59;47.60;;;18.13;;
70052;SDS011;57398;52.032;4.376;2022-11-12T03:34:27;51.28;;;18.00;;
70052;SDS011;57398;52.032;4.376;2022-11-12T03:36:54;53.45;;;18.08;;
70052;SDS011;57398;52.032;4.376;2022-11-12T03:39:22;49.88;;;17.98;;
70052;SDS011;57398;52.032;4.376;2022-11-12T03:41:49;56.33;;;18.53;;
70052;SDS011;57398;52.032;4.376;2022-11-12T03:44:17;53.65;;;19.05;;
70052;SDS011;57398;52.032;4.376;2022-11-12T03:46:45;49.00;;;17.83;;
70052;SDS011;57398;52.032;4.376;2022-11-12T03:49:14;51.03;;;19.35;;
70052;SDS011;57398;52.032;4.376;2022-11-12T03:51:42;46.33;;;18.17;;
70052;SDS011;57398;52.032;4.376;2022-11-12T03:54:09;49.27;;;17.90;;
70052;SDS011;57398;52.032;4.376;2022-11-12T03:56:37;48.22;;;17.98;;
70052;SDS011;57398;52.032;4.376;2022-11-12T03:59:05;51.00;;;17.55;;
70052;SDS011;57398;52.032;4.376;2022-11-12T04:01:33;47.65;;;17.45;;
70052;SDS011;57398;52.032;4.376;2022-11-12T04:04:01;44.60;;;17.30;;
70052;SDS011;57398;52.032;4.376;2022-11-12T04:06:30;43.67;;;17.10;;
70052;SDS011;57398;52.032;4.376;2022-11-12T04:09:15;45.90;;;15.98;;
70052;SDS011;57398;52.032;4.376;2022-11-12T04:11:42;48.40;;;18.05;;
70052;SDS011;57398;52.032;4.376;2022-11-12T04:14:10;44.17;;;16.42;;
70052;SDS011;57398;52.032;4.376;2022-11-12T04:16:37;47.50;;;17.23;;
70052;SDS011;57398;52.032;4.376;2022-11-12T04:19:23;40.10;;;15.67;;
70052;SDS011;57398;52.032;4.376;2022-11-12T04:22:18;37.35;;;15.05;;
70052;SDS011;57398;52.032;4.376;2022-11-12T04:24:45;28.95;;;13.35;;
70052;SDS011;57398;52.032;4.376;2022-11-12T04:27:31;31.83;;;14.73;;
70052;SDS011;57398;52.032;4.376;2022-11-12T04:29:59;38.90;;;14.60;;
70052;SDS011;57398;52.032;4.376;2022-11-12T04:32:45;34.03;;;14.97;;
70052;SDS011;57398;52.032;4.376;2022-11-12T04:35:14;32.45;;;14.57;;
70052;SDS011;57398;52.032;4.376;2022-11-12T04:37:45;33.60;;;14.65;;
70052;SDS011;57398;52.032;4.376;2022-11-12T04:40:14;38.80;;;15.85;;
70052;SDS011;57398;52.032;4.376;2022-11-12T04:43:01;34.90;;;14.45;;
70052;SDS011;57398;52.032;4.376;2022-11-12T04:45:48;34.40;;;14.77;;
70052;SDS011;57398;52.032;4.376;2022-11-12T04:48:19;33.10;;;14.70;;
70052;SDS011;57398;52.032;4.376;2022-11-12T04:50:48;35.50;;;15.18;;
70052;SDS011;57398;52.032;4.376;2022-11-12T04:53:21;32.45;;;13.80;;
70052;SDS011;57398;52.032;4.376;2022-11-12T04:55:50;32.22;;;13.57;;
70052;SDS011;57398;52.032;4.376;2022-11-12T04:58:18;32.37;;;14.37;;
70052;SDS011;57398;52.032;4.376;2022-11-12T05:00:46;34.47;;;14.40;;
70052;SDS011;57398;52.032;4.376;2022-11-12T05:03:14;35.83;;;14.68;;
70052;SDS011;57398;52.032;4.376;2022-11-12T05:05:42;34.80;;;14.40;;
70052;SDS011;57398;52.032;4.376;2022-11-12T05:08:10;34.88;;;15.32;;
70052;SDS011;57398;52.032;4.376;2022-11-12T05:10:39;34.40;;;14.03;;
70052;SDS011;57398;52.032;4.376;2022-11-12T05:13:06;34.60;;;15.15;;
70052;SDS011;57398;52.032;4.376;2022-11-12T05:15:34;34.90;;;14.30;;
70052;SDS011;57398;52.032;4.376;2022-11-12T05:18:02;32.30;;;13.65;;
70052;SDS011;57398;52.032;4.376;2022-11-12T05:20:30;26.25;;;12.60;;
70052;SDS011;57398;52.032;4.376;2022-11-12T05:22:57;29.77;;;12.87;;
70052;SDS011;57398;52.032;4.376;2022-11-12T05:25:32;28.55;;;13.45;;
70052;SDS011;57398;52.032;4.376;2022-11-12T05:28:02;33.60;;;13.40;;
70052;SDS011;57398;52.032;4.376;2022-11-12T05:30:32;33.97;;;13.63;;
70052;SDS011;57398;52.032;4.376;2022-11-12T05:32:59;34.72;;;13.45;;
70052;SDS011;57398;52.032;4.376;2022-11-12T05:35:27;32.77;;;13.37;;
70052;SDS011;57398;52.032;4.376;2022-11-12T05:37:55;30.13;;;13.50;;
70052;SDS011;57398;52.032;4.376;2022-11-12T05:40:22;34.40;;;14.23;;
70052;SDS011;57398;52.032;4.376;2022-11-12T05:42:50;40.15;;;13.50;;
70052;SDS011;57398;52.032;4.376;2022-11-12T05:45:19;44.10;;;14.75;;
70052;SDS011;57398;52.032;4.376;2022-11-12T05:47:46;34.73;;;13.23;;
70052;SDS011;57398;52.032;4.376;2022-11-12T05:50:15;39.55;;;13.85;;
70052;SDS011;57398;52.032;4.376;2022-11-12T05:52:42;35.15;;;13.75;;
70052;SDS011;57398;52.032;4.376;2022-11-12T05:55:11;40.58;;;13.13;;
70052;SDS011;57398;52.032;4.376;2022-11-12T05:57:39;45.63;;;14.20;;
70052;SDS011;57398;52.032;4.376;2022-11-12T06:00:07;31.27;;;13.40;;
70052;SDS011;57398;52.032;4.376;2022-11-12T06:02:37;34.85;;;13.50;;
70052;SDS011;57398;52.032;4.376;2022-11-12T06:05:05;33.03;;;13.05;;
70052;SDS011;57398;52.032;4.376;2022-11-12T06:07:33;34.63;;;13.77;;
70052;SDS011;57398;52.032;4.376;2022-11-12T06:10:01;38.08;;;13.57;;
70052;SDS011;57398;52.032;4.376;2022-11-12T06:12:28;32.03;;;13.20;;
70052;SDS011;57398;52.032;4.376;2022-11-12T06:14:56;28.65;;;12.35;;
70052;SDS011;57398;52.032;4.376;2022-11-12T06:17:24;30.67;;;13.15;;
70052;SDS011;57398;52.032;4.376;2022-11-12T06:19:53;33.42;;;13.52;;
70052;SDS011;57398;52.032;4.376;2022-11-12T06:22:20;29.73;;;13.13;;
70052;SDS011;57398;52.032;4.376;2022-11-12T06:24:48;29.33;;;13.20;;
70052;SDS011;57398;52.032;4.376;2022-11-12T06:27:15;31.02;;;12.88;;
70052;SDS011;57398;52.032;4.376;2022-11-12T06:29:43;29.63;;;13.57;;
70052;SDS011;57398;52.032;4.376;2022-11-12T06:32:10;30.38;;;13.88;;
70052;SDS011;57398;52.032;4.376;2022-11-12T06:34:38;24.13;;;12.80;;
70052;SDS011;57398;52.032;4.376;2022-11-12T06:37:07;25.93;;;12.57;;
70052;SDS011;57398;52.032;4.376;2022-11-12T06:39:35;28.23;;;12.70;;
70052;SDS011;57398;52.032;4.376;2022-11-12T06:42:03;29.90;;;13.55;;
70052;SDS011;57398;52.032;4.376;2022-11-12T06:44:30;27.83;;;12.00;;
70052;SDS011;57398;52.032;4.376;2022-11-12T06:46:58;27.13;;;12.52;;
70052;SDS011;57398;52.032;4.376;2022-11-12T06:49:26;27.27;;;12.07;;
70052;SDS011;57398;52.032;4.376;2022-11-12T06:51:53;24.90;;;12.82;;
70052;SDS011;57398;52.032;4.376;2022-11-12T06:54:22;26.98;;;12.82;;
70052;SDS011;57398;52.032;4.376;2022-11-12T06:56:49;27.15;;;12.60;;
70052;SDS011;57398;52.032;4.376;2022-11-12T06:59:17;25.83;;;12.35;;
70052;SDS011;57398;52.032;4.376;2022-11-12T07:01:45;29.73;;;12.77;;
70052;SDS011;57398;52.032;4.376;2022-11-12T07:04:12;25.77;;;12.40;;
70052;SDS011;57398;52.032;4.376;2022-11-12T07:06:40;25.70;;;13.05;;
70052;SDS011;57398;52.032;4.376;2022-11-12T07:09:08;26.70;;;12.60;;
70052;SDS011;57398;52.032;4.376;2022-11-12T07:11:38;26.65;;;13.85;;
70052;SDS011;57398;52.032;4.376;2022-11-12T07:14:05;27.60;;;12.87;;
70052;SDS011;57398;52.032;4.376;2022-11-12T07:16:34;24.23;;;12.90;;
70052;SDS011;57398;52.032;4.376;2022-11-12T07:19:02;25.58;;;12.60;;
70052;SDS011;57398;52.032;4.376;2022-11-12T07:21:30;26.27;;;13.23;;
70052;SDS011;57398;52.032;4.376;2022-11-12T07:23:57;27.10;;;12.32;;
70052;SDS011;57398;52.032;4.376;2022-11-12T07:26:25;24.93;;;12.67;;
70052;SDS011;57398;52.032;4.376;2022-11-12T07:28:54;24.80;;;13.48;;
70052;SDS011;57398;52.032;4.376;2022-11-12T07:31:22;24.42;;;12.57;;
70052;SDS011;57398;52.032;4.376;2022-11-12T07:33:51;23.88;;;12.75;;
70052;SDS011;57398;52.032;4.376;2022-11-12T07:36:19;26.10;;;13.45;;
70052;SDS011;57398;52.032;4.376;2022-11-12T07:38:49;25.37;;;13.47;;
70052;SDS011;57398;52.032;4.376;2022-11-12T07:41:19;27.15;;;13.52;;
70052;SDS011;57398;52.032;4.376;2022-11-12T07:43:48;25.27;;;13.73;;
70052;SDS011;57398;52.032;4.376;2022-11-12T07:46:19;25.45;;;13.38;;
70052;SDS011;57398;52.032;4.376;2022-11-12T07:48:47;27.25;;;14.23;;
70052;SDS011;57398;52.032;4.376;2022-11-12T07:51:15;27.20;;;14.43;;
70052;SDS011;57398;52.032;4.376;2022-11-12T07:53:45;26.77;;;14.07;;
70052;SDS011;57398;52.032;4.376;2022-11-12T07:56:14;27.35;;;15.52;;
70052;SDS011;57398;52.032;4.376;2022-11-12T07:58:43;32.08;;;15.88;;
70052;SDS011;57398;52.032;4.376;2022-11-12T08:01:15;29.85;;;14.90;;
70052;SDS011;57398;52.032;4.376;2022-11-12T08:03:52;29.17;;;15.23;;
70052;SDS011;57398;52.032;4.376;2022-11-12T08:06:19;31.52;;;16.08;;
70052;SDS011;57398;52.032;4.376;2022-11-12T08:08:47;28.92;;;15.68;;
70052;SDS011;57398;52.032;4.376;2022-11-12T08:11:18;32.22;;;15.82;;
70052;SDS011;57398;52.032;4.376;2022-11-12T08:13:46;31.25;;;16.55;;
70052;SDS011;57398;52.032;4.376;2022-11-12T08:16:13;30.10;;;16.40;;
70052;SDS011;57398;52.032;4.376;2022-11-12T08:18:43;29.63;;;16.02;;
70052;SDS011;57398;52.032;4.376;2022-11-12T08:21:12;30.95;;;17.02;;
70052;SDS011;57398;52.032;4.376;2022-11-12T08:23:41;31.75;;;16.65;;
70052;SDS011;57398;52.032;4.376;2022-11-12T08:26:09;30.15;;;17.23;;
70052;SDS011;57398;52.032;4.376;2022-11-12T08:28:38;31.47;;;16.73;;
70052;SDS011;57398;52.032;4.376;2022-11-12T08:31:07;32.22;;;16.33;;
70052;SDS011;57398;52.032;4.376;2022-11-12T08:33:34;29.63;;;16.52;;
70052;SDS011;57398;52.032;4.376;2022-11-12T08:36:04;30.77;;;17.25;;
70052;SDS011;57398;52.032;4.376;2022-11-12T08:38:33;31.13;;;17.80;;
70052;SDS011;57398;52.032;4.376;2022-11-12T08:41:02;31.13;;;16.47;;
70052;SDS011;57398;52.032;4.376;2022-11-12T08:43:31;29.83;;;16.70;;
70052;SDS011;57398;52.032;4.376;2022-11-12T08:45:58;30.10;;;16.25;;
70052;SDS011;57398;52.032;4.376;2022-11-12T08:48:27;29.48;;;16.42;;
70052;SDS011;57398;52.032;4.376;2022-11-12T08:50:56;32.03;;;17.38;;
70052;SDS011;57398;52.032;4.376;2022-11-12T08:53:25;32.07;;;16.90;;
70052;SDS011;57398;52.032;4.376;2022-11-12T08:55:53;30.73;;;16.50;;
70052;SDS011;57398;52.032;4.376;2022-11-12T08:58:21;31.65;;;17.08;;
70052;SDS011;57398;52.032;4.376;2022-11-12T09:00:50;28.42;;;16.20;;
70052;SDS011;57398;52.032;4.376;2022-11-12T09:03:19;36.58;;;17.67;;
70052;SDS011;57398;52.032;4.376;2022-11-12T09:05:48;34.53;;;16.77;;
70052;SDS011;57398;52.032;4.376;2022-11-12T09:08:17;32.28;;;17.35;;
70052;SDS011;57398;52.032;4.376;2022-11-12T09:10:47;32.67;;;16.95;;
70052;SDS011;57398;52.032;4.376;2022-11-12T09:13:14;33.88;;;17.77;;
70052;SDS011;57398;52.032;4.376;2022-11-12T09:15:43;33.58;;;17.60;;
70052;SDS011;57398;52.032;4.376;2022-11-12T09:18:12;35.10;;;18.07;;
70052;SDS011;57398;52.032;4.376;2022-11-12T09:20:41;32.05;;;17.15;;
70052;SDS011;57398;52.032;4.376;2022-11-12T09:23:09;31.35;;;17.05;;
70052;SDS011;57398;52.032;4.376;2022-11-12T09:25:38;29.30;;;16.05;;
70052;SDS011;57398;52.032;4.376;2022-11-12T09:28:08;32.28;;;16.77;;
70052;SDS011;57398;52.032;4.376;2022-11-12T09:30:41;31.00;;;16.27;;
70052;SDS011;57398;52.032;4.376;2022-11-12T09:33:11;29.10;;;15.60;;
70052;SDS011;57398;52.032;4.376;2022-11-12T09:35:39;28.90;;;16.20;;
70052;SDS011;57398;52.032;4.376;2022-11-12T09:38:07;25.42;;;15.32;;
70052;SDS011;57398;52.032;4.376;2022-11-12T09:40:38;24.65;;;14.77;;
70052;SDS011;57398;52.032;4.376;2022-11-12T09:43:15;26.40;;;14.50;;
70052;SDS011;57398;52.032;4.376;2022-11-12T09:45:44;28.15;;;14.55;;
70052;SDS011;57398;52.032;4.376;2022-11-12T09:48:33;25.55;;;14.45;;
70052;SDS011;57398;52.032;4.376;2022-11-12T09:51:09;24.40;;;13.40;;
70052;SDS011;57398;52.032;4.376;2022-11-12T09:53:39;24.27;;;14.27;;
70052;SDS011;57398;52.032;4.376;2022-11-12T09:56:12;24.63;;;13.80;;
70052;SDS011;57398;52.032;4.376;2022-11-12T09:58:43;21.05;;;13.00;;
70052;SDS011;57398;52.032;4.376;2022-11-12T10:01:12;22.30;;;13.07;;
70052;SDS011;57398;52.032;4.376;2022-11-12T10:03:45;20.63;;;13.10;;
70052;SDS011;57398;52.032;4.376;2022-11-12T10:06:20;23.75;;;13.20;;
70052;SDS011;57398;52.032;4.376;2022-11-12T10:08:51;22.77;;;13.37;;
70052;SDS011;57398;52.032;4.376;2022-11-12T10:14:43;22.17;;;13.05;;
70052;SDS011;57398;52.032;4.376;2022-11-12T10:17:17;21.33;;;13.45;;
70052;SDS011;57398;52.032;4.376;2022-11-12T10:19:59;20.60;;;12.65;;
70052;SDS011;57398;52.032;4.376;2022-11-12T10:22:43;21.70;;;13.57;;
70052;SDS011;57398;52.032;4.376;2022-11-12T10:25:25;20.88;;;13.18;;
70052;SDS011;57398;52.032;4.376;2022-11-12T10:27:53;19.20;;;12.43;;
70052;SDS011;57398;52.032;4.376;2022-11-12T10:30:23;18.98;;;11.80;;
70052;SDS011;57398;52.032;4.376;2022-11-12T10:32:52;18.08;;;11.50;;
70052;SDS011;57398;52.032;4.376;2022-11-12T10:35:20;21.23;;;11.70;;
70052;SDS011;57398;52.032;4.376;2022-11-12T10:37:50;18.80;;;11.13;;
70052;SDS011;57398;52.032;4.376;2022-11-12T10:40:27;16.92;;;10.23;;
70052;SDS011;57398;52.032;4.376;2022-11-12T10:42:57;16.67;;;10.38;;
70052;SDS011;57398;52.032;4.376;2022-11-12T10:45:28;17.23;;;9.60;;
70052;SDS011;57398;52.032;4.376;2022-11-12T10:47:56;16.07;;;9.10;;
70052;SDS011;57398;52.032;4.376;2022-11-12T10:50:26;14.88;;;8.98;;
70052;SDS011;57398;52.032;4.376;2022-11-12T10:52:57;14.32;;;8.63;;
70052;SDS011;57398;52.032;4.376;2022-11-12T10:55:27;15.15;;;8.75;;
70052;SDS011;57398;52.032;4.376;2022-11-12T10:58:06;15.30;;;8.77;;
70052;SDS011;57398;52.032;4.376;2022-11-12T11:00:52;15.50;;;8.40;;
70052;SDS011;57398;52.032;4.376;2022-11-12T11:03:25;13.77;;;7.88;;
70052;SDS011;57398;52.032;4.376;2022-11-12T11:05:57;12.85;;;7.88;;
70052;SDS011;57398;52.032;4.376;2022-11-12T11:08:34;11.45;;;7.50;;
70052;SDS011;57398;52.032;4.376;2022-11-12T11:13:53;12.37;;;7.20;;
70052;SDS011;57398;52.032;4.376;2022-11-12T11:16:23;12.07;;;7.10;;
70052;SDS011;57398;52.032;4.376;2022-11-12T11:18:53;11.20;;;7.22;;
70052;SDS011;57398;52.032;4.376;2022-11-12T11:21:29;11.55;;;6.57;;
70052;SDS011;57398;52.032;4.376;2022-11-12T11:24:14;11.07;;;7.03;;
70052;SDS011;57398;52.032;4.376;2022-11-12T11:27:02;9.67;;;6.33;;
70052;SDS011;57398;52.032;4.376;2022-11-12T11:29:40;10.35;;;5.70;;
70052;SDS011;57398;52.032;4.376;2022-11-12T11:32:25;9.70;;;5.93;;
70052;SDS011;57398;52.032;4.376;2022-11-12T11:35:08;9.40;;;4.97;;
70052;SDS011;57398;52.032;4.376;2022-11-12T11:37:45;8.75;;;5.43;;
70052;SDS011;57398;52.032;4.376;2022-11-12T11:40:26;10.63;;;6.10;;
70052;SDS011;57398;52.032;4.376;2022-11-12T11:42:56;10.07;;;5.78;;
70052;SDS011;57398;52.032;4.376;2022-11-12T11:45:43;10.40;;;6.07;;
70052;SDS011;57398;52.032;4.376;2022-11-12T11:48:25;7.72;;;4.13;;
70052;SDS011;57398;52.032;4.376;2022-11-12T11:51:07;7.05;;;3.80;;
70052;SDS011;57398;52.032;4.376;2022-11-12T11:53:53;6.67;;;3.43;;
70052;SDS011;57398;52.032;4.376;2022-11-12T11:56:30;7.30;;;3.50;;
70052;SDS011;57398;52.032;4.376;2022-11-12T11:59:04;7.28;;;3.28;;
70052;SDS011;57398;52.032;4.376;2022-11-12T12:01:48;6.75;;;3.33;;
70052;SDS011;57398;52.032;4.376;2022-11-12T12:04:35;7.03;;;3.13;;
70052;SDS011;57398;52.032;4.376;2022-11-12T12:07:15;7.60;;;3.50;;
70052;SDS011;57398;52.032;4.376;2022-11-12T12:09:53;8.30;;;3.80;;
70052;SDS011;57398;52.032;4.376;2022-11-12T12:12:46;8.40;;;3.20;;
70052;SDS011;57398;52.032;4.376;2022-11-12T12:15:26;6.88;;;3.53;;
70052;SDS011;57398;52.032;4.376;2022-11-12T12:18:03;9.13;;;4.60;;
70052;SDS011;57398;52.032;4.376;2022-11-12T12:20:42;8.57;;;4.13;;
70052;SDS011;57398;52.032;4.376;2022-11-12T12:23:22;8.27;;;4.90;;
70052;SDS011;57398;52.032;4.376;2022-11-12T12:25:55;9.82;;;5.00;;
70052;SDS011;57398;52.032;4.376;2022-11-12T12:28:28;7.93;;;3.83;;
70052;SDS011;57398;52.032;4.376;2022-11-12T12:31:03;7.15;;;3.47;;
70052;SDS011;57398;52.032;4.376;2022-11-12T12:33:36;7.43;;;2.93;;
70052;SDS011;57398;52.032;4.376;2022-11-12T12:36:11;7.38;;;3.40;;
70052;SDS011;57398;52.032;4.376;2022-11-12T12:38:42;5.97;;;3.05;;
70052;SDS011;57398;52.032;4.376;2022-11-12T12:41:15;6.82;;;3.05;;
70052;SDS011;57398;52.032;4.376;2022-11-12T12:43:45;6.25;;;2.80;;
70052;SDS011;57398;52.032;4.376;2022-11-12T12:46:13;6.13;;;2.87;;
70052;SDS011;57398;52.032;4.376;2022-11-12T12:48:43;4.63;;;2.30;;
70052;SDS011;57398;52.032;4.376;2022-11-12T12:51:14;4.38;;;2.00;;
70052;SDS011;57398;52.032;4.376;2022-11-12T12:53:42;10.00;;;2.38;;
70052;SDS011;57398;52.032;4.376;2022-11-12T12:59:17;4.60;;;2.10;;
70052;SDS011;57398;52.032;4.376;2022-11-12T13:01:51;5.15;;;2.30;;
70052;SDS011;57398;52.032;4.376;2022-11-12T13:07:21;5.30;;;2.40;;
70052;SDS011;57398;52.032;4.376;2022-11-12T13:13:25;6.07;;;2.67;;
70052;SDS011;57398;52.032;4.376;2022-11-12T13:15:58;7.43;;;3.53;;
70052;SDS011;57398;52.032;4.376;2022-11-12T13:21:36;7.75;;;4.00;;
70052;SDS011;57398;52.032;4.376;2022-11-12T13:24:08;8.45;;;4.30;;
70052;SDS011;57398;52.032;4.376;2022-11-12T13:26:50;7.67;;;3.87;;
70052;SDS011;57398;52.032;4.376;2022-11-12T13:29:37;7.30;;;3.75;;
70052;SDS011;57398;52.032;4.376;2022-11-12T13:32:24;8.15;;;4.20;;
70052;SDS011;57398;52.032;4.376;2022-11-12T13:37:48;8.38;;;3.90;;
70052;SDS011;57398;52.032;4.376;2022-11-12T13:40:22;7.93;;;4.30;;
70052;SDS011;57398;52.032;4.376;2022-11-12T13:43:02;9.15;;;4.47;;
70052;SDS011;57398;52.032;4.376;2022-11-12T13:45:33;11.27;;;4.72;;
70052;SDS011;57398;52.032;4.376;2022-11-12T13:48:07;11.07;;;4.90;;
70052;SDS011;57398;52.032;4.376;2022-11-12T13:50:39;8.93;;;4.85;;
70052;SDS011;57398;52.032;4.376;2022-11-12T13:53:07;8.73;;;4.63;;
70052;SDS011;57398;52.032;4.376;2022-11-12T13:55:38;10.20;;;5.05;;
70052;SDS011;57398;52.032;4.376;2022-11-12T13:58:25;10.23;;;5.18;;
70052;SDS011;57398;52.032;4.376;2022-11-12T14:00:54;10.55;;;5.55;;
70052;SDS011;57398;52.032;4.376;2022-11-12T14:03:24;11.35;;;5.57;;
70052;SDS011;57398;52.032;4.376;2022-11-12T14:05:55;10.00;;;5.27;;
70052;SDS011;57398;52.032;4.376;2022-11-12T14:08:34;11.90;;;5.90;;
70052;SDS011;57398;52.032;4.376;2022-11-12T14:11:22;9.88;;;5.43;;
70052;SDS011;57398;52.032;4.376;2022-11-12T14:14:10;10.88;;;5.47;;
70052;SDS011;57398;52.032;4.376;2022-11-12T14:16:51;9.90;;;5.50;;
70052;SDS011;57398;52.032;4.376;2022-11-12T14:19:47;11.07;;;5.70;;
70052;SDS011;57398;52.032;4.376;2022-11-12T14:22:26;11.07;;;5.78;;
70052;SDS011;57398;52.032;4.376;2022-11-12T14:25:01;10.10;;;5.50;;
70052;SDS011;57398;52.032;4.376;2022-11-12T14:27:34;9.93;;;5.32;;
70052;SDS011;57398;52.032;4.376;2022-11-12T14:30:04;11.00;;;5.53;;
70052;SDS011;57398;52.032;4.376;2022-11-12T14:32:37;10.37;;;5.60;;
70052;SDS011;57398;52.032;4.376;2022-11-12T14:35:26;10.48;;;4.95;;
70052;SDS011;57398;52.032;4.376;2022-11-12T14:37:57;9.73;;;5.32;;
70052;SDS011;57398;52.032;4.376;2022-11-12T14:40:30;9.93;;;5.18;;
70052;SDS011;57398;52.032;4.376;2022-11-12T14:43:01;11.48;;;5.78;;
70052;SDS011;57398;52.032;4.376;2022-11-12T14:45:29;10.63;;;5.40;;
70052;SDS011;57398;52.032;4.376;2022-11-12T14:48:00;10.50;;;5.78;;
70052;SDS011;57398;52.032;4.376;2022-11-12T14:50:28;10.88;;;6.00;;
70052;SDS011;57398;52.032;4.376;2022-11-12T14:53:04;12.35;;;5.43;;
70052;SDS011;57398;52.032;4.376;2022-11-12T14:55:39;11.68;;;6.00;;
70052;SDS011;57398;52.032;4.376;2022-11-12T14:58:15;11.63;;;6.30;;
70052;SDS011;57398;52.032;4.376;2022-11-12T15:00:44;11.38;;;5.78;;
70052;SDS011;57398;52.032;4.376;2022-11-12T15:03:14;12.95;;;7.00;;
70052;SDS011;57398;52.032;4.376;2022-11-12T15:05:52;10.07;;;5.80;;
70052;SDS011;57398;52.032;4.376;2022-11-12T15:08:29;10.43;;;5.90;;
70052;SDS011;57398;52.032;4.376;2022-11-12T15:11:15;9.20;;;5.23;;